METAR és
SPECI
METAR LHBP 250230Z VRB02KT 9999 OVC014 07/05 Q1023 NOSIG=
METAR LHBP 250200Z VRB02KT 9999 OVC013 06/05 Q1023 NOSIG=
METAR LHBP 250130Z VRB02KT 9999 OVC014 06/05 Q1023 NOSIG=
METAR LHBP 250100Z VRB01KT 9999 OVC015 07/05 Q1023 NOSIG=
METAR LHBP 250030Z VRB02KT 9999 OVC014 07/05 Q1023 NOSIG=
METAR LHBP 250000Z VRB02KT 9999 OVC013 07/04 Q1023 NOSIG=
TAF
TAF LHBP 242300Z 2500/2524 04005KT 9999 OVC012 TEMPO 2506/2508 SCT015 SCT040 BECMG 2508/2511 SCT028 SCT045 TEMPO 2511/2518 CAVOK BECMG 2515/2518 VRB03KT TEMPO 2518/2524 BKN013=
GAMET
Nincs érvényes távirat! 
FAHU41 LHBM 241100
LHCC GAMET VALID 241200/241800 LHBP-
BUDAPEST FIR BLW FL100
SECN 1
SFC VIS: 3000-5000M IN RA BR SE OF
LINE N4745 E01800 - N4700 E01630
SIG CLD: BKN/OVC 0500-1000/XXX FT AGL SE OF
LINE N4745 E01800 - N4700 E01630
ICE: MOD ABV 6000 FT AMSL
TURB: MOD SFC/FL100
SIGMETS APPLICABLE: NIL=
AIRMET
Nincs érvényes távirat! 
WAHU41 LHBM 160545
LHCC AIRMET 01 VALID 160545/160800 LHBP-
LHCC BUDAPEST FIR BKN/OVC CLD 200-500/1000 FT AGL WKN=
SIGMET
Nincs érvényes távirat! 
WSHU31 LHBM 241840
LHCC SIGMET 01 VALID 241840/242140 LHBP-
LHCC BUDAPEST FIR SEV ICE FCST W OF LINE N4557 E01730 -
N4831 E02117 6000FT/FL100 MOV NW WKN=
SIGMET
Vulkáni hamufelhő
Not valid product! 
WVHU31 LHBM 271515 CCA
LHCC SIGMET 03 VALID 271515/271800 LHBP-
LHCC BUDAPEST FIR EXERCISE VOLCEX12/01
CNL VA SIGMET 02 271200/271800
EXERCISE EXERCISE EXERCISE VOLCEX12/01=